Time;durP1;ratioP1;P1;durP2;ratioP2;P2;SDS_P1;SDS_P2;PMS_P1;PMS_P2;Temp;Humidity;BMP_temperature;BMP_pressure;BME280_temperature;BME280_humidity;BME280_pressure;Samples;Min_cycle;Max_cycle;Signal;HPM_P1;HPM_P2
2022/04/27 00:00:29;;;;;;;21.10;15.52;;;6.70;83.90;;;;;;5026865;28;20427;-78
2022/04/27 00:02:58;;;;;;;18.67;14.77;;;6.70;84.10;;;;;;5020658;28;20041;-78
2022/04/27 00:05:25;;;;;;;23.95;15.98;;;6.70;84.20;;;;;;5026790;28;20045;-79
2022/04/27 00:07:51;;;;;;;21.48;16.67;;;6.70;84.30;;;;;;5022857;28;20057;-78
2022/04/27 00:10:19;;;;;;;23.58;16.77;;;6.70;84.30;;;;;;5024314;28;20465;-78
2022/04/27 00:12:45;;;;;;;20.80;15.68;;;6.70;84.30;;;;;;5022539;28;20076;-78
2022/04/27 00:15:12;;;;;;;21.70;15.48;;;6.60;84.30;;;;;;5030200;28;20132;-79
2022/04/27 00:17:38;;;;;;;19.13;15.73;;;6.60;84.40;;;;;;5023920;28;20500;-78
2022/04/27 00:20:05;;;;;;;22.15;16.05;;;6.60;84.50;;;;;;5025465;28;20053;-78
2022/04/27 00:22:30;;;;;;;21.83;16.30;;;6.60;84.60;;;;;;5020701;28;20025;-77
2022/04/27 00:25:00;;;;;;;21.65;15.02;;;6.60;84.50;;;;;;5020434;28;20056;-78
2022/04/27 00:27:27;;;;;;;23.60;16.23;;;6.60;84.70;;;;;;5028046;28;20041;-78
2022/04/27 00:29:53;;;;;;;21.17;17.38;;;6.50;84.70;;;;;;5033521;28;20142;-78
2022/04/27 00:32:19;;;;;;;23.05;16.55;;;6.50;84.80;;;;;;5023816;28;20025;-78
2022/04/27 00:34:44;;;;;;;23.60;17.42;;;6.50;84.90;;;;;;5021129;28;20045;-77
2022/04/27 00:37:10;;;;;;;20.80;15.20;;;6.50;85.00;;;;;;5022800;28;20281;-78
2022/04/27 00:39:35;;;;;;;20.83;16.00;;;6.50;85.00;;;;;;5019206;28;20045;-78
2022/04/27 00:42:14;;;;;;;19.33;15.80;;;6.50;85.10;;;;;;5025477;28;20513;-77
2022/04/27 00:44:43;;;;;;;26.98;17.38;;;6.40;85.20;;;;;;5025546;28;20084;-78
2022/04/27 00:47:10;;;;;;;22.70;16.50;;;6.40;85.30;;;;;;5024353;28;20049;-78
2022/04/27 00:49:36;;;;;;;19.85;16.63;;;6.40;85.40;;;;;;5020428;28;20045;-78
2022/04/27 00:52:01;;;;;;;21.10;17.25;;;6.40;85.40;;;;;;5021581;28;20045;-76
2022/04/27 00:54:28;;;;;;;24.65;18.48;;;6.40;85.50;;;;;;5031325;28;20111;-77
2022/04/27 00:56:54;;;;;;;21.40;16.88;;;6.30;85.50;;;;;;5030582;28;20061;-77
2022/04/27 00:59:20;;;;;;;23.65;17.40;;;6.30;85.60;;;;;;5026678;28;20481;-77
2022/04/27 01:01:46;;;;;;;22.15;16.52;;;6.30;85.70;;;;;;5022782;28;20041;-77
2022/04/27 01:04:11;;;;;;;24.75;17.10;;;6.30;85.80;;;;;;5022849;28;20150;-77
2022/04/27 01:06:38;;;;;;;20.67;16.95;;;6.30;85.80;;;;;;5020803;28;20485;-77
2022/04/27 01:09:05;;;;;;;20.67;17.05;;;6.20;85.80;;;;;;5025452;28;20042;-77
2022/04/27 01:11:32;;;;;;;23.00;17.55;;;6.20;85.90;;;;;;5021543;28;20066;-77
2022/04/27 01:13:58;;;;;;;25.23;17.25;;;6.20;86.10;;;;;;5022058;28;20041;-78
2022/04/27 01:16:24;;;;;;;24.65;17.08;;;6.20;86.00;;;;;;5032471;28;20048;-77
2022/04/27 01:18:53;;;;;;;19.92;15.85;;;6.20;86.00;;;;;;5033329;28;20324;-77
2022/04/27 01:21:18;;;;;;;25.08;17.75;;;6.20;86.10;;;;;;5020752;28;20044;-78
2022/04/27 01:23:44;;;;;;;23.23;17.20;;;6.20;86.20;;;;;;5020135;28;20045;-77
2022/04/27 01:26:10;;;;;;;22.98;17.60;;;6.20;86.20;;;;;;5029004;28;20046;-78
2022/04/27 01:28:38;;;;;;;26.00;17.77;;;6.20;86.30;;;;;;5025608;28;20493;-77
2022/04/27 01:31:09;;;;;;;24.83;17.33;;;6.20;86.30;;;;;;5028044;28;20080;-77
2022/04/27 01:33:35;;;;;;;22.10;17.13;;;6.20;86.20;;;;;;5021351;28;20059;-78
2022/04/27 01:36:03;;;;;;;26.05;18.00;;;6.20;86.10;;;;;;5021986;28;20485;-78
2022/04/27 01:38:42;;;;;;;26.77;17.20;;;6.20;86.10;;;;;;5023978;28;20038;-78
2022/04/27 01:41:08;;;;;;;23.08;17.38;;;6.20;86.20;;;;;;5018338;28;20064;-78
2022/04/27 01:43:35;;;;;;;21.33;17.42;;;6.20;86.30;;;;;;5024349;28;20047;-78
2022/04/27 01:46:02;;;;;;;23.58;18.02;;;6.10;86.30;;;;;;5025361;28;20037;-77
2022/04/27 01:48:28;;;;;;;21.38;17.13;;;6.10;86.40;;;;;;5034764;28;20055;-77
2022/04/27 01:50:54;;;;;;;21.73;16.95;;;6.10;86.40;;;;;;5027935;28;20795;-77
2022/04/27 01:56:05;;;;;;;21.17;16.67;;;6.10;86.40;;;;;;5024289;28;20057;-78
2022/04/27 01:58:31;;;;;;;25.20;17.13;;;6.10;86.40;;;;;;5017885;28;20021;-78
2022/04/27 02:00:57;;;;;;;22.65;17.40;;;6.00;86.20;;;;;;5020043;28;20038;-78
2022/04/27 02:03:24;;;;;;;25.05;17.13;;;6.00;86.10;;;;;;5023893;28;20060;-78
2022/04/27 02:05:52;;;;;;;21.45;16.50;;;6.10;86.10;;;;;;5025446;28;20062;-77
2022/04/27 02:08:18;;;;;;;20.63;16.67;;;6.10;85.80;;;;;;5018631;28;20049;-77
2022/04/27 02:10:44;;;;;;;21.77;17.33;;;6.00;85.60;;;;;;5024279;28;20042;-78
2022/04/27 02:13:11;;;;;;;22.10;16.85;;;6.00;85.60;;;;;;5021033;28;20029;-78
2022/04/27 02:15:37;;;;;;;23.70;17.13;;;6.10;85.70;;;;;;5021463;28;20045;-77
2022/04/27 02:18:03;;;;;;;24.00;17.27;;;6.10;85.60;;;;;;5025569;28;20124;-77
2022/04/27 02:20:29;;;;;;;24.10;18.60;;;6.00;85.60;;;;;;5026830;28;20544;-78
2022/04/27 02:22:55;;;;;;;24.33;18.08;;;6.10;85.60;;;;;;5033327;28;20474;-77
2022/04/27 02:25:22;;;;;;;22.60;17.65;;;6.10;85.40;;;;;;5032230;28;20151;-78
2022/04/27 02:27:49;;;;;;;22.80;17.25;;;6.00;85.30;;;;;;5033076;28;20069;-78
2022/04/27 02:30:16;;;;;;;22.83;18.05;;;6.00;85.40;;;;;;5027463;28;20037;-77
2022/04/27 02:32:42;;;;;;;24.83;19.17;;;6.00;85.40;;;;;;5024468;28;20049;-78
2022/04/27 02:35:09;;;;;;;24.73;17.88;;;6.00;85.30;;;;;;5024269;28;20041;-77
2022/04/27 02:37:36;;;;;;;25.33;19.02;;;5.90;85.40;;;;;;5024527;28;20033;-78
2022/04/27 02:40:03;;;;;;;23.90;18.92;;;5.80;85.60;;;;;;5025192;28;20033;-77
2022/04/27 02:42:29;;;;;;;22.80;18.50;;;5.80;85.90;;;;;;5026384;28;20033;-77
2022/04/27 02:44:56;;;;;;;24.45;19.38;;;5.70;86.00;;;;;;5026165;28;20033;-77
2022/04/27 02:47:22;;;;;;;25.42;19.50;;;5.70;86.10;;;;;;5018589;28;20494;-77
2022/04/27 02:52:32;;;;;;;24.67;17.98;;;5.70;86.10;;;;;;5025414;28;20099;-77
2022/04/27 02:54:58;;;;;;;23.73;17.73;;;5.70;85.90;;;;;;5023444;28;20037;-77
2022/04/27 02:57:24;;;;;;;24.52;17.40;;;5.60;85.80;;;;;;5029348;28;20469;-77
2022/04/27 02:59:50;;;;;;;22.83;17.90;;;5.60;85.80;;;;;;5021889;28;20484;-77
2022/04/27 03:02:16;;;;;;;23.77;18.75;;;5.60;85.80;;;;;;5025823;28;20045;-78
2022/04/27 03:04:42;;;;;;;25.70;19.92;;;5.60;85.80;;;;;;5023111;28;20095;-77
2022/04/27 03:07:08;;;;;;;27.42;19.52;;;5.60;85.90;;;;;;5025589;28;20845;-77
2022/04/27 03:09:34;;;;;;;30.80;20.67;;;5.60;86.20;;;;;;5032822;28;20037;-77
2022/04/27 03:12:00;;;;;;;27.50;20.38;;;5.60;86.40;;;;;;5023810;28;20044;-77
2022/04/27 03:14:25;;;;;;;29.38;23.52;;;5.60;86.80;;;;;;5023853;28;20068;-77
2022/04/27 03:16:54;;;;;;;30.35;23.23;;;5.60;87.10;;;;;;5029181;28;20387;-77
2022/04/27 03:19:19;;;;;;;29.83;22.15;;;5.60;87.20;;;;;;5029005;28;20043;-77
2022/04/27 03:21:45;;;;;;;28.00;21.75;;;5.60;87.30;;;;;;5022812;28;20033;-77
2022/04/27 03:24:11;;;;;;;30.75;24.15;;;5.60;87.20;;;;;;5023062;28;20086;-77
2022/04/27 03:26:37;;;;;;;32.65;24.20;;;5.60;87.40;;;;;;5022221;28;20109;-78
2022/04/27 03:29:06;;;;;;;34.10;26.48;;;5.70;87.50;;;;;;5025011;28;20701;-77
2022/04/27 03:31:32;;;;;;;36.67;26.25;;;5.60;87.80;;;;;;5023419;28;20033;-77
2022/04/27 03:33:58;;;;;;;37.80;25.80;;;5.70;87.90;;;;;;5017682;28;20449;-77
2022/04/27 03:36:24;;;;;;;31.55;24.05;;;5.70;87.90;;;;;;5026901;28;20037;-77
2022/04/27 03:38:50;;;;;;;34.72;26.00;;;5.70;88.00;;;;;;5017943;28;20034;-78
2022/04/27 03:41:22;;;;;;;38.03;26.52;;;5.60;88.10;;;;;;5029631;28;20519;-77
2022/04/27 03:43:49;;;;;;;35.90;25.50;;;5.70;88.10;;;;;;5031683;28;20384;-77
2022/04/27 03:46:15;;;;;;;31.88;24.48;;;5.70;88.20;;;;;;5028058;28;20124;-78
2022/04/27 03:48:41;;;;;;;38.20;24.65;;;5.60;88.20;;;;;;5030654;28;20030;-77
2022/04/27 03:51:07;;;;;;;30.77;23.33;;;5.60;88.20;;;;;;5024705;28;20021;-78
2022/04/27 03:53:33;;;;;;;29.45;22.60;;;5.60;88.30;;;;;;5034190;28;20133;-78
2022/04/27 03:55:59;;;;;;;30.45;23.90;;;5.50;88.20;;;;;;5022377;28;20045;-78
2022/04/27 03:58:24;;;;;;;28.17;22.77;;;5.50;87.90;;;;;;5023903;28;20383;-77
2022/04/27 04:00:50;;;;;;;30.80;21.83;;;5.40;87.60;;;;;;5026487;28;20038;-78
2022/04/27 04:03:15;;;;;;;30.20;22.35;;;5.30;87.40;;;;;;5027226;28;20043;-77
2022/04/27 04:05:41;;;;;;;28.98;21.17;;;5.30;87.40;;;;;;5023953;28;20042;-78
2022/04/27 04:08:07;;;;;;;27.50;21.60;;;5.20;87.40;;;;;;5020960;28;20037;-77
2022/04/27 04:10:34;;;;;;;27.58;21.33;;;5.20;87.30;;;;;;5023552;28;20465;-77
2022/04/27 04:12:59;;;;;;;28.88;22.30;;;5.10;87.00;;;;;;5023491;28;20029;-77
2022/04/27 04:15:25;;;;;;;29.33;20.85;;;5.10;86.80;;;;;;5024154;28;20099;-78
2022/04/27 04:17:51;;;;;;;31.73;23.25;;;5.10;86.90;;;;;;5022166;28;20373;-77
2022/04/27 04:20:17;;;;;;;29.77;22.13;;;5.10;87.00;;;;;;5026135;28;20030;-78
2022/04/27 04:22:44;;;;;;;27.13;20.50;;;5.10;87.00;;;;;;5030528;28;20037;-77
2022/04/27 04:30:38;;;;;;;29.88;22.25;;;5.10;86.80;;;;;;5015358;28;20119;-77
2022/04/27 04:33:04;;;;;;;30.42;21.45;;;5.00;86.70;;;;;;5015404;28;20449;-77
2022/04/27 04:35:30;;;;;;;26.10;20.98;;;5.10;86.70;;;;;;5020153;28;20041;-77
2022/04/27 04:37:55;;;;;;;31.58;23.42;;;5.10;86.80;;;;;;5010678;28;20072;-78
2022/04/27 04:40:21;;;;;;;31.65;23.15;;;5.10;86.80;;;;;;5017669;28;20148;-77
2022/04/27 04:42:47;;;;;;;35.55;25.73;;;5.10;86.70;;;;;;5009891;28;20095;-77
2022/04/27 04:45:13;;;;;;;32.22;25.02;;;5.10;86.90;;;;;;5006930;28;20057;-78
2022/04/27 04:47:38;;;;;;;32.63;24.85;;;5.20;87.00;;;;;;5003658;28;20424;-78
2022/04/27 04:50:05;;;;;;;34.30;25.55;;;5.20;87.10;;;;;;5010334;28;20034;-79
2022/04/27 04:52:31;;;;;;;42.17;27.20;;;5.30;87.20;;;;;;5016243;28;20044;-79
2022/04/27 04:54:57;;;;;;;40.97;28.95;;;5.40;87.20;;;;;;5021968;28;20041;-78
2022/04/27 04:57:22;;;;;;;37.40;28.85;;;5.40;87.30;;;;;;5008599;28;20064;-79
2022/04/27 04:59:48;;;;;;;40.67;28.38;;;5.50;87.40;;;;;;4997544;28;20054;-78
2022/04/27 05:02:13;;;;;;;36.58;27.10;;;5.60;87.30;;;;;;5007936;28;20030;-78
2022/04/27 05:04:39;;;;;;;34.60;26.25;;;5.60;87.30;;;;;;5004291;28;20053;-78
2022/04/27 05:07:05;;;;;;;38.03;28.80;;;5.70;87.10;;;;;;5004217;28;20133;-79
2022/04/27 05:09:30;;;;;;;37.75;27.30;;;5.70;87.20;;;;;;5015763;28;20069;-78
2022/04/27 05:11:56;;;;;;;35.22;26.08;;;5.80;87.20;;;;;;5003093;28;20037;-79
2022/04/27 05:14:22;;;;;;;38.13;27.55;;;5.90;87.00;;;;;;5002964;28;20144;-78
2022/04/27 05:16:47;;;;;;;37.30;28.50;;;5.90;86.80;;;;;;5002838;28;20077;-79
2022/04/27 05:19:13;;;;;;;42.25;27.52;;;5.90;86.80;;;;;;4999939;28;20038;-78
2022/04/27 05:21:38;;;;;;;37.95;28.40;;;5.90;87.10;;;;;;5015242;28;20053;-77
2022/04/27 05:24:05;;;;;;;42.22;28.55;;;5.90;87.30;;;;;;5014967;28;20473;-77
2022/04/27 05:26:31;;;;;;;36.10;26.98;;;6.00;87.50;;;;;;4999942;28;20076;-77
2022/04/27 05:32:00;;;;;;;35.88;27.50;;;6.20;87.50;;;;;;5009705;28;20408;-79
2022/04/27 05:34:29;;;;;;;37.00;27.13;;;6.40;87.60;;;;;;5016070;28;20676;-79
2022/04/27 05:36:56;;;;;;;36.33;27.10;;;6.50;87.30;;;;;;5024336;28;20044;-79
2022/04/27 05:39:22;;;;;;;38.22;27.77;;;6.70;86.90;;;;;;5016063;28;20029;-76
2022/04/27 05:41:52;;;;;;;36.60;27.55;;;6.70;86.80;;;;;;5013050;28;20439;-77
2022/04/27 05:44:19;;;;;;;35.65;26.88;;;6.80;86.70;;;;;;5014065;28;20048;-78
2022/04/27 05:46:45;;;;;;;37.13;28.00;;;7.00;86.50;;;;;;5016408;28;20485;-78
2022/04/27 05:49:12;;;;;;;37.65;27.77;;;7.00;85.90;;;;;;5027179;28;20044;-78
2022/04/27 05:51:37;;;;;;;38.97;27.70;;;7.00;85.70;;;;;;5020627;28;20052;-78
2022/04/27 05:54:03;;;;;;;38.88;28.38;;;7.10;85.50;;;;;;5020918;28;20037;-78
2022/04/27 05:56:29;;;;;;;38.60;27.52;;;7.10;85.60;;;;;;5026651;28;20395;-77
2022/04/27 05:58:54;;;;;;;37.53;27.95;;;7.10;85.70;;;;;;5019709;28;20053;-77
2022/04/27 06:01:20;;;;;;;38.05;28.55;;;7.20;85.40;;;;;;5034925;28;20175;-78
2022/04/27 06:03:46;;;;;;;37.88;27.73;;;7.20;85.50;;;;;;5019571;28;20072;-78
2022/04/27 06:06:11;;;;;;;38.47;28.25;;;7.30;85.30;;;;;;5009061;28;20041;-77
2022/04/27 06:08:37;;;;;;;39.45;29.02;;;7.30;85.40;;;;;;5026307;28;20041;-78
2022/04/27 06:11:03;;;;;;;36.58;28.05;;;7.40;85.30;;;;;;5020568;28;20129;-78
2022/04/27 06:13:29;;;;;;;39.97;29.52;;;7.50;85.50;;;;;;5015892;28;20485;-78
2022/04/27 06:15:55;;;;;;;39.17;30.38;;;7.70;85.60;;;;;;5015394;28;20286;-78
2022/04/27 06:18:20;;;;;;;37.90;27.88;;;7.70;85.00;;;;;;5014716;28;20496;-77
2022/04/27 06:20:46;;;;;;;37.65;30.38;;;7.80;84.80;;;;;;5019817;28;20087;-78
2022/04/27 06:23:13;;;;;;;52.38;28.60;;;8.00;84.30;;;;;;5013472;28;20067;-74
2022/04/27 06:25:40;;;;;;;38.45;27.40;;;8.10;83.90;;;;;;5020222;28;20794;-74
2022/04/27 06:28:07;;;;;;;41.63;28.25;;;8.20;83.60;;;;;;5022177;28;20038;-74
2022/04/27 06:30:35;;;;;;;37.67;25.85;;;8.20;83.40;;;;;;5030909;28;20044;-74
2022/04/27 06:33:02;;;;;;;39.65;26.40;;;8.30;83.20;;;;;;5025396;28;20389;-75
2022/04/27 06:35:28;;;;;;;34.80;25.35;;;8.40;83.20;;;;;;5019265;28;20057;-76
2022/04/27 06:37:53;;;;;;;35.83;24.17;;;8.60;82.50;;;;;;5020261;28;20128;-72
2022/04/27 06:40:19;;;;;;;36.97;23.30;;;8.80;81.90;;;;;;5022761;28;20033;-73
2022/04/27 06:42:45;;;;;;;35.53;23.45;;;8.90;80.70;;;;;;5024355;28;20038;-72
2022/04/27 06:45:13;;;;;;;31.80;21.25;;;9.10;81.00;;;;;;5023611;28;20370;-73
2022/04/27 06:47:38;;;;;;;30.25;19.98;;;9.50;80.20;;;;;;5033598;28;20128;-73
2022/04/27 06:50:06;;;;;;;26.77;18.90;;;9.40;77.90;;;;;;5016102;28;20653;-74
2022/04/27 06:52:39;;;;;;;27.05;18.63;;;9.70;78.80;;;;;;5010993;28;20383;-74
2022/04/27 06:55:05;;;;;;;24.35;17.77;;;10.10;77.40;;;;;;5014518;28;20045;-73
2022/04/27 06:57:31;;;;;;;23.15;16.67;;;10.20;76.30;;;;;;5015634;28;20033;-72
2022/04/27 06:59:57;;;;;;;25.48;17.42;;;10.10;75.00;;;;;;5028645;28;20056;-73
2022/04/27 07:02:22;;;;;;;28.35;18.23;;;9.90;75.60;;;;;;5026194;28;20060;-74
2022/04/27 07:04:55;;;;;;;22.70;17.33;;;10.10;76.50;;;;;;5017454;28;20151;-73
2022/04/27 07:07:21;;;;;;;27.77;16.65;;;10.50;75.40;;;;;;5016575;28;20278;-72
2022/04/27 07:09:47;;;;;;;21.13;16.30;;;10.60;73.70;;;;;;5018020;28;20787;-73
2022/04/27 07:12:13;;;;;;;22.60;16.77;;;10.70;74.00;;;;;;5013240;28;20041;-72
2022/04/27 07:14:39;;;;;;;22.70;16.38;;;10.90;72.60;;;;;;5016510;28;20539;-74
2022/04/27 07:17:05;;;;;;;21.20;14.80;;;11.10;71.60;;;;;;5015170;28;20171;-75
2022/04/27 07:19:31;;;;;;;22.05;14.90;;;11.00;70.60;;;;;;5022009;28;20467;-73
2022/04/27 07:21:57;;;;;;;20.77;13.88;;;10.80;71.10;;;;;;5019794;28;20489;-73
2022/04/27 07:24:24;;;;;;;21.75;13.65;;;10.70;71.80;;;;;;5017495;28;20092;-73
2022/04/27 07:26:49;;;;;;;20.05;12.43;;;10.80;70.50;;;;;;5018623;28;20044;-71
2022/04/27 07:29:15;;;;;;;16.33;12.25;;;10.80;70.40;;;;;;5017960;28;20029;-73
2022/04/27 07:31:41;;;;;;;17.83;13.02;;;10.90;70.10;;;;;;5014949;28;20797;-72
2022/04/27 07:34:06;;;;;;;16.55;11.45;;;10.90;70.30;;;;;;5006185;28;20318;-74
2022/04/27 07:36:32;;;;;;;17.05;11.63;;;11.00;68.90;;;;;;5011775;28;20125;-73
2022/04/27 07:38:58;;;;;;;17.13;11.88;;;11.40;69.40;;;;;;5006031;28;20053;-73
2022/04/27 07:41:24;;;;;;;17.05;10.18;;;11.60;67.80;;;;;;5016219;28;20037;-71
2022/04/27 07:43:50;;;;;;;15.27;10.05;;;11.70;66.90;;;;;;5031226;28;20100;-70
2022/04/27 07:46:16;;;;;;;20.25;11.40;;;12.00;64.30;;;;;;5022874;28;20196;-73
2022/04/27 07:48:41;;;;;;;14.65;10.43;;;12.00;64.70;;;;;;5009353;28;20089;-72
2022/04/27 07:51:07;;;;;;;13.70;9.38;;;12.20;64.20;;;;;;5004485;28;20080;-72
2022/04/27 07:53:33;;;;;;;16.70;9.90;;;12.20;63.10;;;;;;5006872;28;20064;-71
2022/04/27 07:55:59;;;;;;;15.88;9.82;;;12.30;63.10;;;;;;5012534;28;20041;-73
2022/04/27 07:58:24;;;;;;;16.58;10.27;;;12.30;62.70;;;;;;5017261;28;20045;-73
2022/04/27 08:00:50;;;;;;;13.15;7.97;;;12.30;62.00;;;;;;5019742;28;20507;-74
2022/04/27 08:03:16;;;;;;;12.52;7.15;;;12.50;61.50;;;;;;5018177;28;20117;-72
2022/04/27 08:05:42;;;;;;;12.18;7.40;;;12.60;58.60;;;;;;5018249;28;20041;-73
2022/04/27 08:08:11;;;;;;;11.57;7.43;;;12.20;59.90;;;;;;5016191;28;20476;-74
2022/04/27 08:10:37;;;;;;;11.50;6.53;;;12.70;58.80;;;;;;5027466;28;20041;-77
2022/04/27 08:13:02;;;;;;;13.40;7.72;;;12.70;58.10;;;;;;5015054;28;20106;-76
2022/04/27 08:15:28;;;;;;;12.68;7.20;;;12.50;57.90;;;;;;5014078;28;20638;-74
2022/04/27 08:17:57;;;;;;;9.60;6.00;;;12.60;59.30;;;;;;5020033;28;20044;-73
2022/04/27 08:23:10;;;;;;;13.85;6.38;;;13.10;56.10;;;;;;5007604;28;20037;-74
2022/04/27 08:25:36;;;;;;;11.82;7.43;;;13.10;55.90;;;;;;5007297;28;20041;-76
2022/04/27 08:28:06;;;;;;;10.52;5.90;;;12.50;57.60;;;;;;5017706;28;20049;-73
2022/04/27 08:30:40;;;;;;;9.85;5.72;;;12.50;55.70;;;;;;5021799;28;20058;-71
2022/04/27 08:33:07;;;;;;;10.48;6.70;;;12.60;55.50;;;;;;5020426;28;20795;-73
2022/04/27 08:35:34;;;;;;;11.65;5.97;;;12.30;56.20;;;;;;5025286;28;20144;-73
2022/04/27 08:38:03;;;;;;;11.02;5.25;;;12.60;56.80;;;;;;5023305;28;20053;-71
2022/04/27 08:40:30;;;;;;;10.68;5.70;;;12.60;54.40;;;;;;5019263;28;20041;-70
2022/04/27 08:42:56;;;;;;;11.27;6.53;;;12.60;54.70;;;;;;5029436;28;20481;-77
2022/04/27 08:45:22;;;;;;;9.93;6.28;;;12.80;55.30;;;;;;5032882;28;20457;-73
2022/04/27 08:47:50;;;;;;;12.73;6.18;;;12.90;55.50;;;;;;5016591;28;20042;-73
2022/04/27 08:50:19;;;;;;;8.85;5.32;;;12.70;54.40;;;;;;5011656;28;20060;-72
2022/04/27 08:52:45;;;;;;;9.82;5.70;;;13.00;52.50;;;;;;5033206;28;20158;-73
2022/04/27 08:55:12;;;;;;;9.93;6.15;;;13.60;52.30;;;;;;5031280;28;20056;-72
2022/04/27 08:57:39;;;;;;;9.63;6.50;;;14.00;52.10;;;;;;5017283;28;20042;-72
2022/04/27 09:00:07;;;;;;;10.52;6.03;;;14.40;51.70;;;;;;5007604;28;20069;-73
2022/04/27 09:02:33;;;;;;;15.23;5.95;;;14.60;50.50;;;;;;5014666;28;20501;-72
2022/04/27 09:05:15;;;;;;;13.02;6.03;;;14.50;50.00;;;;;;5021160;28;20044;-74
2022/04/27 09:07:40;;;;;;;9.82;5.65;;;14.70;49.20;;;;;;5017659;28;20072;-73
2022/04/27 09:10:14;;;;;;;9.85;5.75;;;15.00;48.20;;;;;;5012918;28;20045;-74
2022/04/27 09:12:51;;;;;;;9.52;6.07;;;15.30;48.20;;;;;;5025059;28;20049;-74
2022/04/27 09:15:19;;;;;;;9.80;6.25;;;15.50;47.60;;;;;;5016687;28;20053;-72
2022/04/27 09:20:50;;;;;;;9.50;6.30;;;15.30;48.70;;;;;;5027382;28;20168;-72
2022/04/27 09:23:40;;;;;;;11.60;6.03;;;15.30;47.50;;;;;;5025569;28;20036;-72
2022/04/27 09:26:18;;;;;;;10.30;5.65;;;15.20;47.60;;;;;;5025060;28;20216;-71
2022/04/27 09:28:53;;;;;;;10.63;6.03;;;15.60;47.00;;;;;;5022428;28;20400;-72
2022/04/27 09:31:32;;;;;;;10.75;6.03;;;15.70;47.70;;;;;;5031467;28;20046;-73
2022/04/27 09:34:02;;;;;;;10.45;5.93;;;16.20;44.80;;;;;;5021890;28;20037;-72
2022/04/27 09:36:29;;;;;;;8.85;5.90;;;15.80;45.60;;;;;;5023118;28;20044;-73
2022/04/27 09:38:57;;;;;;;9.73;6.03;;;15.20;46.50;;;;;;5023997;28;20056;-72
2022/04/27 09:42:05;;;;;;;9.23;6.35;;;14.70;48.30;;;;;;5023041;28;20535;-71
2022/04/27 09:44:33;;;;;;;9.68;5.82;;;15.00;48.90;;;;;;4989751;28;20537;-70
2022/04/27 09:47:02;;;;;;;11.50;6.85;;;15.30;47.90;;;;;;5017505;28;20125;-71
2022/04/27 09:49:28;;;;;;;12.00;6.88;;;15.00;46.50;;;;;;5014651;28;20038;-71
2022/04/27 09:51:55;;;;;;;8.45;5.78;;;14.80;47.20;;;;;;5023564;28;20362;-71
2022/04/27 09:54:25;;;;;;;10.45;6.32;;;15.00;46.40;;;;;;5015243;28;20052;-72
2022/04/27 09:56:55;;;;;;;11.20;6.93;;;15.00;46.20;;;;;;5014289;28;20033;-71
2022/04/27 09:59:22;;;;;;;14.00;6.50;;;15.10;46.30;;;;;;5014630;28;20049;-71
2022/04/27 10:01:49;;;;;;;9.23;6.40;;;15.30;47.00;;;;;;5016021;28;20044;-70
2022/04/27 10:04:21;;;;;;;9.80;6.53;;;15.40;46.10;;;;;;5009290;28;20133;-71
2022/04/27 10:06:47;;;;;;;13.63;7.43;;;15.30;46.80;;;;;;5014057;28;20045;-72
2022/04/27 10:09:13;;;;;;;12.82;7.60;;;15.20;45.90;;;;;;5014884;28;20471;-71
2022/04/27 10:11:41;;;;;;;9.55;6.55;;;15.60;46.60;;;;;;5034588;28;20086;-71
2022/04/27 10:14:07;;;;;;;10.00;7.15;;;15.50;45.60;;;;;;5023184;28;20040;-71
2022/04/27 10:16:34;;;;;;;10.40;7.32;;;15.60;45.80;;;;;;5022102;28;20030;-72
2022/04/27 10:19:00;;;;;;;10.65;7.32;;;15.60;43.90;;;;;;5025837;28;20059;-73
2022/04/27 10:21:57;;;;;;;12.32;8.77;;;15.60;45.70;;;;;;5018984;28;20492;-71
2022/04/27 10:24:35;;;;;;;11.00;7.78;;;15.80;44.10;;;;;;5041262;28;20096;-73
2022/04/27 10:27:24;;;;;;;11.00;7.63;;;15.50;44.50;;;;;;5024884;28;20496;-74
2022/04/27 10:29:59;;;;;;;11.27;8.18;;;15.30;44.50;;;;;;5042364;28;20036;-75
2022/04/27 10:32:37;;;;;;;11.27;7.93;;;15.60;46.80;;;;;;5022712;28;20048;-73
2022/04/27 10:35:33;;;;;;;11.05;8.13;;;15.40;45.20;;;;;;5022424;28;20046;-73
2022/04/27 10:38:05;;;;;;;11.43;8.77;;;15.10;44.80;;;;;;5020446;28;20128;-72
2022/04/27 10:40:40;;;;;;;13.30;9.50;;;15.00;46.40;;;;;;5022554;28;20038;-74
2022/04/27 10:43:15;;;;;;;13.68;9.65;;;15.30;45.50;;;;;;5033749;28;20100;-73
2022/04/27 10:45:44;;;;;;;13.82;9.85;;;15.80;43.80;;;;;;5025187;28;20045;-72
2022/04/27 10:48:24;;;;;;;15.68;9.50;;;15.70;43.40;;;;;;5016191;28;20171;-72
2022/04/27 10:51:00;;;;;;;13.57;9.55;;;15.50;43.60;;;;;;5006880;28;20069;-73
2022/04/27 10:53:28;;;;;;;12.80;9.88;;;15.10;44.70;;;;;;5011491;28;20425;-73
2022/04/27 10:55:58;;;;;;;15.95;10.68;;;15.00;45.40;;;;;;5012048;28;20045;-72
2022/04/27 10:58:35;;;;;;;14.55;10.32;;;15.00;46.10;;;;;;5010725;28;20069;-73
2022/04/27 11:01:01;;;;;;;15.10;10.05;;;15.50;45.80;;;;;;5012088;28;20132;-74
2022/04/27 11:03:28;;;;;;;14.43;10.02;;;16.10;45.30;;;;;;5010620;28;20182;-75
2022/04/27 11:06:00;;;;;;;14.90;9.93;;;16.40;43.90;;;;;;5012712;28;20045;-73
2022/04/27 11:08:34;;;;;;;15.18;10.13;;;16.50;45.40;;;;;;5014926;28;20045;-74
2022/04/27 11:11:06;;;;;;;14.23;10.07;;;16.50;43.90;;;;;;5013310;28;20125;-74
2022/04/27 11:13:33;;;;;;;11.52;9.60;;;16.70;44.80;;;;;;5015166;28;20284;-72
2022/04/27 11:16:12;;;;;;;12.45;10.75;;;16.50;43.90;;;;;;5011538;28;20041;-75
2022/04/27 11:18:48;;;;;;;14.00;10.10;;;16.50;43.60;;;;;;5014547;28;20049;-73
2022/04/27 11:21:17;;;;;;;11.88;9.90;;;16.80;43.70;;;;;;5011073;28;20561;-73
2022/04/27 11:23:42;;;;;;;12.90;10.23;;;17.10;43.00;;;;;;5011925;28;20107;-73
2022/04/27 11:26:08;;;;;;;14.77;9.95;;;16.80;43.30;;;;;;5013959;28;20128;-74
2022/04/27 11:28:36;;;;;;;15.00;10.77;;;16.30;44.40;;;;;;5012073;28;20049;-74
2022/04/27 11:31:02;;;;;;;13.07;10.50;;;15.90;45.10;;;;;;5026694;28;20065;-73
2022/04/27 11:33:28;;;;;;;17.08;10.70;;;15.80;46.60;;;;;;5012299;28;21151;-73
2022/04/27 11:35:53;;;;;;;14.73;10.48;;;16.10;45.50;;;;;;5011424;28;20065;-73
2022/04/27 11:38:20;;;;;;;14.68;11.02;;;16.50;44.70;;;;;;5014238;28;20045;-74
2022/04/27 11:40:49;;;;;;;16.70;11.25;;;16.30;44.30;;;;;;5024228;28;20042;-72
2022/04/27 11:43:23;;;;;;;13.95;10.95;;;16.10;45.50;;;;;;5028404;28;20037;-72
2022/04/27 11:45:52;;;;;;;15.82;12.65;;;16.10;45.30;;;;;;5022849;28;20026;-74
2022/04/27 11:48:21;;;;;;;13.18;11.13;;;16.20;44.00;;;;;;5031109;28;20037;-74
2022/04/27 11:50:50;;;;;;;14.48;11.52;;;16.50;44.40;;;;;;5026264;28;20115;-73
2022/04/27 11:53:15;;;;;;;13.52;11.20;;;16.40;43.90;;;;;;5028064;28;20041;-74
2022/04/27 11:55:43;;;;;;;13.02;10.68;;;16.10;45.20;;;;;;5030479;28;20037;-74
2022/04/27 11:58:09;;;;;;;14.40;11.43;;;16.00;46.20;;;;;;5010615;28;20033;-74
2022/04/27 12:00:35;;;;;;;16.13;11.85;;;15.60;46.30;;;;;;5009401;28;20060;-77
2022/04/27 12:03:06;;;;;;;14.80;11.88;;;15.50;46.70;;;;;;5006671;28;20033;-73
2022/04/27 12:05:36;;;;;;;14.70;11.90;;;15.50;47.60;;;;;;5013867;28;20517;-72
2022/04/27 12:08:09;;;;;;;14.80;12.23;;;15.60;46.60;;;;;;5013947;28;20044;-74
2022/04/27 12:10:39;;;;;;;15.65;12.43;;;15.90;46.50;;;;;;5015323;28;20034;-80
2022/04/27 12:13:06;;;;;;;12.82;11.45;;;15.60;45.60;;;;;;5018466;28;20104;-73
2022/04/27 12:15:32;;;;;;;16.63;12.40;;;16.20;46.00;;;;;;5031329;28;20045;-72
2022/04/27 12:17:58;;;;;;;16.25;12.52;;;16.70;43.90;;;;;;5021568;28;20040;-74
2022/04/27 12:20:43;;;;;;;16.33;11.93;;;16.80;43.40;;;;;;5025265;28;20041;-73
2022/04/27 12:23:10;;;;;;;15.43;12.52;;;17.00;42.80;;;;;;5021898;28;20501;-73
2022/04/27 12:25:43;;;;;;;16.92;12.80;;;17.10;42.50;;;;;;5025782;28;20120;-76
2022/04/27 12:28:15;;;;;;;15.00;12.45;;;16.50;44.10;;;;;;5028240;28;20045;-77
2022/04/27 12:30:50;;;;;;;14.15;12.18;;;16.40;44.70;;;;;;5024193;28;20048;-77
2022/04/27 12:33:27;;;;;;;17.10;12.73;;;16.80;45.00;;;;;;5011338;28;20049;-75
2022/04/27 12:39:05;;;;;;;17.35;12.50;;;17.00;43.70;;;;;;5024471;28;20072;-73
2022/04/27 12:41:40;;;;;;;17.55;13.05;;;17.10;44.00;;;;;;5023612;28;20400;-75
2022/04/27 12:44:12;;;;;;;18.17;13.20;;;17.30;43.20;;;;;;5022215;28;20223;-76
2022/04/27 12:46:53;;;;;;;14.48;12.10;;;17.10;43.10;;;;;;5020706;28;20045;-75
2022/04/27 12:49:24;;;;;;;15.75;12.57;;;17.20;42.50;;;;;;5028077;28;20037;-76
2022/04/27 12:51:50;;;;;;;14.85;13.25;;;17.30;43.40;;;;;;5025290;28;20045;-74
2022/04/27 12:54:15;;;;;;;16.15;12.82;;;17.20;41.70;;;;;;5022341;28;20045;-76
2022/04/27 12:56:42;;;;;;;15.10;13.27;;;16.80;44.00;;;;;;5022923;28;20037;-76
2022/04/27 12:59:12;;;;;;;15.52;13.48;;;16.50;43.20;;;;;;5028068;28;20423;-75
2022/04/27 13:01:38;;;;;;;15.52;12.57;;;16.50;43.00;;;;;;5023736;28;20389;-76